Time,TemperatureF,DewpointF,PressureIn,WindDirection,WindDirectionDegrees,WindSpeedMPH,WindSpeedGustMPH,Humidity,HourlyPrecipIn,Conditions,Clouds,dailyrainin,SoftwareType,DateUTC
2013-01-10 00:02:00,32.9,32.7,29.44,SW,225,2.0,2.0,99,0.00,,,0.11,meteohub,2013-01-10 08:02:00,
2013-01-10 00:07:00,32.5,32.4,29.44,SW,225,1.0,2.0,99,0.00,,,0.11,meteohub,2013-01-10 08:07:00,
2013-01-10 00:12:00,32.4,32.2,29.44,SW,225,2.0,2.0,99,0.00,,,0.11,meteohub,2013-01-10 08:12:00,
2013-01-10 00:17:00,32.5,32.4,29.44,West,270,4.0,4.0,99,0.00,,,0.11,meteohub,2013-01-10 08:17:00,
2013-01-10 00:22:00,32.7,32.5,29.44,West,270,2.0,4.0,99,0.00,,,0.11,meteohub,2013-01-10 08:22:00,
2013-01-10 00:27:00,32.9,32.7,29.44,West,270,2.0,4.0,99,0.00,,,0.11,meteohub,2013-01-10 08:27:00,
2013-01-10 00:32:00,33.1,32.9,29.44,SW,225,3.0,4.0,99,0.00,,,0.11,meteohub,2013-01-10 08:32:00,
2013-01-10 00:38:00,33.4,33.3,29.44,West,270,3.0,4.0,99,0.00,,,0.11,meteohub,2013-01-10 08:38:00,
2013-01-10 00:43:00,33.4,33.3,29.44,West,270,3.0,4.0,99,0.00,,,0.11,meteohub,2013-01-10 08:43:00,
2013-01-10 00:48:00,33.6,33.4,29.44,West,270,3.0,4.0,99,0.00,,,0.11,meteohub,2013-01-10 08:48:00,
2013-01-10 00:53:00,33.6,33.4,29.45,SW,225,3.0,4.0,99,0.00,,,0.11,meteohub,2013-01-10 08:53:00,
2013-01-10 00:58:00,33.6,33.4,29.45,SW,225,2.0,4.0,99,0.00,,,0.11,meteohub,2013-01-10 08:58:00,
2013-01-10 01:03:00,33.4,33.3,29.45,SW,225,5.0,5.0,99,0.00,,,0.11,meteohub,2013-01-10 09:03:00,
2013-01-10 01:08:00,33.4,33.3,29.45,SW,225,5.0,5.0,99,0.00,,,0.11,meteohub,2013-01-10 09:08:00,
2013-01-10 01:13:00,34.0,33.8,29.45,SW,225,4.0,5.0,99,0.00,,,0.11,meteohub,2013-01-10 09:13:00,
2013-01-10 01:18:00,34.0,33.8,29.45,SW,225,4.0,7.0,99,0.00,,,0.11,meteohub,2013-01-10 09:18:00,
2013-01-10 01:24:00,34.0,33.8,29.45,SW,225,2.0,7.0,99,0.00,,,0.11,meteohub,2013-01-10 09:24:00,
2013-01-10 01:29:00,34.0,33.8,29.46,South,180,2.0,7.0,99,0.00,,,0.11,meteohub,2013-01-10 09:29:00,
2013-01-10 01:34:00,34.0,33.8,29.46,South,180,2.0,7.0,99,0.00,,,0.11,meteohub,2013-01-10 09:34:00,
2013-01-10 01:39:00,34.0,33.8,29.45,SW,225,2.0,7.0,99,0.00,,,0.11,meteohub,2013-01-10 09:39:00,
2013-01-10 01:44:00,34.0,33.8,29.45,SE,135,2.0,4.0,99,0.00,,,0.11,meteohub,2013-01-10 09:44:00,
2013-01-10 01:49:00,34.0,33.8,29.45,South,180,1.0,2.0,99,0.00,,,0.11,meteohub,2013-01-10 09:49:00,
2013-01-10 01:54:00,33.8,33.6,29.45,North,0,1.0,2.0,99,0.00,,,0.11,meteohub,2013-01-10 09:54:00,
2013-01-10 01:59:00,33.6,33.4,29.45,SW,225,4.0,4.0,99,0.00,,,0.11,meteohub,2013-01-10 09:59:00,
2013-01-10 02:04:00,33.4,33.3,29.46,West,270,3.0,3.0,99,0.00,,,0.11,meteohub,2013-01-10 10:04:00,
2013-01-10 02:09:00,33.1,32.9,29.46,South,180,2.0,4.0,99,0.00,,,0.11,meteohub,2013-01-10 10:09:00,
2013-01-10 02:14:00,32.9,32.7,29.46,South,180,0.0,4.0,99,0.00,,,0.11,meteohub,2013-01-10 10:14:00,
2013-01-10 02:19:00,32.5,32.4,29.46,South,180,0.0,4.0,99,0.00,,,0.11,meteohub,2013-01-10 10:19:00,
2013-01-10 02:25:00,32.5,32.4,29.46,South,180,0.0,3.0,99,0.00,,,0.11,meteohub,2013-01-10 10:25:00,
2013-01-10 02:30:00,32.7,32.5,29.47,SW,225,0.0,0.0,99,0.00,,,0.11,meteohub,2013-01-10 10:30:00,
2013-01-10 02:35:00,32.5,32.4,29.47,SW,225,0.0,0.0,99,0.00,,,0.11,meteohub,2013-01-10 10:35:00,
2013-01-10 02:40:00,32.4,32.2,29.47,SW,225,0.0,0.0,99,0.00,,,0.11,meteohub,2013-01-10 10:40:00,
2013-01-10 02:45:00,32.4,32.2,29.47,SW,225,2.0,0.0,99,0.00,,,0.11,meteohub,2013-01-10 10:45:00,
2013-01-10 02:50:00,32.5,32.4,29.47,SW,225,0.0,3.0,99,0.00,,,0.11,meteohub,2013-01-10 10:50:00,
2013-01-10 02:55:00,32.4,32.2,29.47,SW,225,0.0,3.0,99,0.00,,,0.11,meteohub,2013-01-10 10:55:00,
2013-01-10 03:00:00,32.5,32.4,29.47,SW,225,0.0,2.0,99,0.00,,,0.11,meteohub,2013-01-10 11:00:00,
2013-01-10 03:05:00,32.5,32.4,29.47,SW,225,0.0,0.0,99,0.00,,,0.11,meteohub,2013-01-10 11:05:00,
2013-01-10 03:10:00,32.4,32.2,29.47,SW,225,0.0,0.0,99,0.00,,,0.11,meteohub,2013-01-10 11:10:00,
2013-01-10 03:15:00,32.4,32.2,29.47,SW,225,0.0,0.0,99,0.00,,,0.11,meteohub,2013-01-10 11:15:00,
2013-01-10 03:20:00,32.4,32.2,29.47,SW,225,0.0,0.0,99,0.00,,,0.11,meteohub,2013-01-10 11:20:00,
2013-01-10 03:25:00,32.4,32.2,29.47,SW,225,0.0,0.0,99,0.00,,,0.11,meteohub,2013-01-10 11:25:00,
2013-01-10 03:30:00,32.2,32.0,29.47,SW,225,0.0,0.0,99,0.00,,,0.11,meteohub,2013-01-10 11:30:00,
2013-01-10 03:35:00,31.6,31.5,29.47,SW,225,0.0,0.0,99,0.00,,,0.11,meteohub,2013-01-10 11:35:00,
2013-01-10 03:41:00,31.5,31.3,29.47,SW,225,2.0,0.0,99,0.00,,,0.11,meteohub,2013-01-10 11:41:00,
2013-01-10 03:46:00,31.5,31.3,29.47,SW,225,0.0,2.0,99,0.00,,,0.11,meteohub,2013-01-10 11:46:00,
2013-01-10 03:51:00,31.5,31.3,29.47,SW,225,0.0,2.0,99,0.00,,,0.11,meteohub,2013-01-10 11:51:00,
2013-01-10 03:56:00,31.6,31.5,29.47,SW,225,0.0,2.0,99,0.00,,,0.11,meteohub,2013-01-10 11:56:00,
2013-01-10 04:01:00,31.5,31.3,29.47,SW,225,0.0,0.0,99,0.00,,,0.11,meteohub,2013-01-10 12:01:00,
2013-01-10 04:06:00,31.3,31.1,29.47,SW,225,0.0,0.0,99,0.00,,,0.11,meteohub,2013-01-10 12:06:00,
2013-01-10 04:11:00,31.1,30.9,29.47,SW,225,0.0,0.0,99,0.00,,,0.11,meteohub,2013-01-10 12:11:00,
2013-01-10 04:16:00,31.1,30.9,29.47,SW,225,0.0,0.0,99,0.00,,,0.11,meteohub,2013-01-10 12:16:00,
2013-01-10 04:21:00,31.1,30.9,29.47,SW,225,0.0,0.0,99,0.00,,,0.11,meteohub,2013-01-10 12:21:00,
2013-01-10 04:26:00,31.3,31.1,29.46,SW,225,0.0,0.0,99,0.00,,,0.11,meteohub,2013-01-10 12:26:00,
2013-01-10 04:31:00,31.5,31.3,29.46,SW,225,0.0,0.0,99,0.00,,,0.11,meteohub,2013-01-10 12:31:00,
2013-01-10 04:36:00,31.3,31.1,29.46,SW,225,0.0,0.0,99,0.00,,,0.11,meteohub,2013-01-10 12:36:00,
2013-01-10 04:41:00,30.9,30.7,29.46,SW,225,0.0,0.0,99,0.00,,,0.11,meteohub,2013-01-10 12:41:00,
2013-01-10 04:46:00,31.3,31.1,29.46,SW,225,0.0,0.0,99,0.00,,,0.11,meteohub,2013-01-10 12:46:00,
2013-01-10 04:51:00,31.5,31.3,29.46,SW,225,0.0,0.0,99,0.00,,,0.11,meteohub,2013-01-10 12:51:00,
2013-01-10 04:56:00,31.3,31.1,29.46,SW,225,0.0,0.0,99,0.00,,,0.11,meteohub,2013-01-10 12:56:00,
2013-01-10 05:01:00,31.5,31.3,29.46,SW,225,0.0,0.0,99,0.00,,,0.11,meteohub,2013-01-10 13:01:00,
2013-01-10 05:07:00,31.5,31.3,29.46,SW,225,0.0,0.0,99,0.00,,,0.11,meteohub,2013-01-10 13:07:00,
2013-01-10 05:12:00,31.5,31.3,29.47,SW,225,0.0,0.0,99,0.00,,,0.11,meteohub,2013-01-10 13:12:00,
2013-01-10 05:17:00,31.5,31.3,29.46,SW,225,0.0,0.0,99,0.00,,,0.11,meteohub,2013-01-10 13:17:00,
2013-01-10 05:22:00,31.5,31.3,29.46,SW,225,0.0,0.0,99,0.00,,,0.11,meteohub,2013-01-10 13:22:00,
2013-01-10 05:27:00,31.5,31.3,29.46,SW,225,0.0,0.0,99,0.00,,,0.11,meteohub,2013-01-10 13:27:00,
2013-01-10 05:32:00,31.5,31.3,29.46,SW,225,0.0,0.0,99,0.00,,,0.11,meteohub,2013-01-10 13:32:00,
2013-01-10 05:37:00,31.5,31.3,29.47,SW,225,0.0,0.0,99,0.00,,,0.11,meteohub,2013-01-10 13:37:00,
2013-01-10 05:42:00,31.6,31.5,29.47,SW,225,0.0,0.0,99,0.00,,,0.11,meteohub,2013-01-10 13:42:00,
2013-01-10 05:47:00,31.6,31.5,29.47,SW,225,0.0,0.0,99,0.00,,,0.11,meteohub,2013-01-10 13:47:00,
2013-01-10 05:52:00,31.8,31.6,29.46,SW,225,0.0,0.0,99,0.00,,,0.11,meteohub,2013-01-10 13:52:00,
2013-01-10 05:57:00,32.0,31.8,29.47,SW,225,0.0,0.0,99,0.00,,,0.11,meteohub,2013-01-10 13:57:00,
2013-01-10 06:02:00,32.2,32.0,29.47,SW,225,0.0,0.0,99,0.00,,,0.11,meteohub,2013-01-10 14:02:00,
2013-01-10 06:07:00,32.2,32.0,29.47,SW,225,0.0,0.0,99,0.00,,,0.11,meteohub,2013-01-10 14:07:00,
2013-01-10 06:12:00,32.4,32.2,29.47,SW,225,0.0,0.0,99,0.00,,,0.11,meteohub,2013-01-10 14:12:00,
2013-01-10 06:17:00,32.5,32.4,29.47,SW,225,0.0,0.0,99,0.00,,,0.11,meteohub,2013-01-10 14:17:00,
2013-01-10 06:22:00,32.5,32.4,29.47,SW,225,0.0,0.0,99,0.00,,,0.11,meteohub,2013-01-10 14:22:00,
2013-01-10 06:27:00,32.7,32.5,29.47,SW,225,0.0,0.0,99,0.00,,,0.11,meteohub,2013-01-10 14:27:00,
2013-01-10 06:32:00,32.7,32.5,29.47,SW,225,0.0,0.0,99,0.00,,,0.11,meteohub,2013-01-10 14:32:00,
2013-01-10 06:37:00,32.7,32.5,29.48,SW,225,0.0,0.0,99,0.00,,,0.11,meteohub,2013-01-10 14:37:00,
2013-01-10 06:42:00,32.7,32.5,29.48,SW,225,0.0,0.0,99,0.00,,,0.11,meteohub,2013-01-10 14:42:00,
2013-01-10 06:47:00,32.7,32.5,29.48,SW,225,0.0,0.0,99,0.00,,,0.11,meteohub,2013-01-10 14:47:00,
2013-01-10 06:52:00,32.7,32.5,29.48,SW,225,0.0,0.0,99,0.00,,,0.11,meteohub,2013-01-10 14:52:00,
2013-01-10 06:57:00,32.7,32.5,29.49,SW,225,0.0,0.0,99,0.00,,,0.11,meteohub,2013-01-10 14:57:00,
2013-01-10 07:02:00,32.7,32.5,29.48,SW,225,0.0,0.0,99,0.00,,,0.11,meteohub,2013-01-10 15:02:00,
2013-01-10 07:07:00,32.7,32.5,29.49,SW,225,0.0,0.0,99,0.00,,,0.11,meteohub,2013-01-10 15:07:00,
2013-01-10 07:12:00,32.7,32.5,29.48,SW,225,0.0,0.0,99,0.00,,,0.11,meteohub,2013-01-10 15:12:00,
2013-01-10 07:17:00,32.5,32.4,29.49,SW,225,0.0,0.0,99,0.00,,,0.11,meteohub,2013-01-10 15:17:00,
2013-01-10 07:22:00,32.5,32.4,29.49,SW,225,0.0,0.0,99,0.00,,,0.11,meteohub,2013-01-10 15:22:00,
2013-01-10 07:27:00,32.5,32.4,29.49,SW,225,0.0,0.0,99,0.00,,,0.11,meteohub,2013-01-10 15:27:00,
2013-01-10 07:32:00,32.5,32.4,29.49,SW,225,0.0,0.0,99,0.00,,,0.11,meteohub,2013-01-10 15:32:00,
2013-01-10 07:37:00,32.7,32.5,29.49,SW,225,0.0,0.0,99,0.00,,,0.11,meteohub,2013-01-10 15:37:00,
2013-01-10 07:42:00,32.7,32.5,29.49,SW,225,0.0,0.0,99,0.00,,,0.11,meteohub,2013-01-10 15:42:00,
2013-01-10 07:47:00,32.9,32.7,29.49,SW,225,0.0,0.0,99,0.00,,,0.11,meteohub,2013-01-10 15:47:00,
2013-01-10 07:52:00,32.9,32.7,29.49,SW,225,0.0,0.0,99,0.00,,,0.11,meteohub,2013-01-10 15:52:00,
2013-01-10 07:57:00,32.9,32.7,29.49,SW,225,0.0,0.0,99,0.00,,,0.11,meteohub,2013-01-10 15:57:00,
2013-01-10 08:02:00,32.9,32.7,29.49,SW,225,0.0,0.0,99,0.00,,,0.11,meteohub,2013-01-10 16:02:00,
2013-01-10 08:07:00,32.9,32.7,29.50,SW,225,0.0,0.0,99,0.00,,,0.11,meteohub,2013-01-10 16:07:00,
2013-01-10 08:12:00,32.9,32.7,29.50,SW,225,0.0,0.0,99,0.00,,,0.11,meteohub,2013-01-10 16:12:00,
2013-01-10 08:17:00,33.1,32.9,29.50,SW,225,0.0,0.0,99,0.00,,,0.11,meteohub,2013-01-10 16:17:00,
2013-01-10 08:22:00,33.1,32.9,29.50,SW,225,0.0,0.0,99,0.00,,,0.11,meteohub,2013-01-10 16:22:00,
2013-01-10 08:27:00,33.1,32.9,29.50,SW,225,0.0,0.0,99,0.00,,,0.11,meteohub,2013-01-10 16:27:00,
2013-01-10 08:32:00,33.1,32.9,29.51,SW,225,0.0,0.0,99,0.00,,,0.11,meteohub,2013-01-10 16:32:00,
2013-01-10 08:37:00,33.3,33.1,29.51,SW,225,0.0,0.0,99,0.00,,,0.11,meteohub,2013-01-10 16:37:00,
2013-01-10 08:42:00,33.4,33.3,29.51,SW,225,0.0,0.0,99,0.00,,,0.11,meteohub,2013-01-10 16:42:00,
2013-01-10 08:48:00,33.6,33.4,29.51,SW,225,0.0,0.0,99,0.00,,,0.11,meteohub,2013-01-10 16:48:00,
2013-01-10 08:53:00,33.6,33.4,29.50,SW,225,0.0,0.0,99,0.00,,,0.11,meteohub,2013-01-10 16:53:00,
2013-01-10 08:58:00,33.8,33.6,29.51,SW,225,1.0,0.0,99,0.00,,,0.11,meteohub,2013-01-10 16:58:00,
2013-01-10 09:03:00,33.8,33.6,29.51,West,270,5.0,5.0,99,0.00,,,0.11,meteohub,2013-01-10 17:03:00,
2013-01-10 09:08:00,34.0,33.8,29.50,SW,225,3.0,5.0,99,0.00,,,0.11,meteohub,2013-01-10 17:08:00,
2013-01-10 09:13:00,34.2,34.0,29.50,SW,225,2.0,5.0,99,0.00,,,0.11,meteohub,2013-01-10 17:13:00,
2013-01-10 09:18:00,34.2,34.0,29.51,SW,225,4.0,5.0,99,0.00,,,0.11,meteohub,2013-01-10 17:18:00,
2013-01-10 09:23:00,34.0,33.8,29.51,SW,225,2.0,4.0,99,0.00,,,0.11,meteohub,2013-01-10 17:23:00,
2013-01-10 09:28:00,34.0,33.8,29.51,South,180,0.0,4.0,99,0.00,,,0.11,meteohub,2013-01-10 17:28:00,
2013-01-10 09:33:00,34.0,33.8,29.51,South,180,2.0,4.0,99,0.00,,,0.11,meteohub,2013-01-10 17:33:00,
2013-01-10 09:38:00,34.0,33.8,29.51,South,180,2.0,2.0,99,0.00,,,0.11,meteohub,2013-01-10 17:38:00,
2013-01-10 09:43:00,34.0,33.8,29.50,South,180,1.0,2.0,99,0.00,,,0.11,meteohub,2013-01-10 17:43:00,
2013-01-10 09:48:00,35.4,35.2,29.51,SW,225,4.0,4.0,99,0.00,,,0.11,meteohub,2013-01-10 17:48:00,
2013-01-10 09:53:00,37.2,37.0,29.51,South,180,10.0,10.0,99,0.01,,,0.11,meteohub,2013-01-10 17:53:00,
2013-01-10 09:58:00,38.3,38.1,29.51,SW,225,10.0,10.0,99,0.01,,,0.12,meteohub,2013-01-10 17:58:00,
2013-01-10 10:03:00,39.2,38.1,29.51,SW,225,7.0,11.0,96,0.01,,,0.12,meteohub,2013-01-10 18:03:00,
2013-01-10 10:08:00,38.3,37.0,29.51,SW,225,7.0,11.0,95,0.01,,,0.12,meteohub,2013-01-10 18:08:00,
2013-01-10 10:13:00,38.1,37.0,29.51,SW,225,8.0,11.0,96,0.01,,,0.12,meteohub,2013-01-10 18:13:00,
2013-01-10 10:19:00,38.5,37.4,29.51,West,270,8.0,12.0,96,0.01,,,0.12,meteohub,2013-01-10 18:19:00,
2013-01-10 10:24:00,38.8,37.6,29.51,SW,225,7.0,12.0,95,0.01,,,0.12,meteohub,2013-01-10 18:24:00,
2013-01-10 10:29:00,39.4,37.8,29.51,SW,225,8.0,12.0,94,0.01,,,0.12,meteohub,2013-01-10 18:29:00,
2013-01-10 10:34:00,40.3,38.7,29.51,SW,225,8.0,10.0,94,0.01,,,0.12,meteohub,2013-01-10 18:34:00,
2013-01-10 10:39:00,40.3,38.7,29.51,SW,225,8.0,8.0,94,0.01,,,0.12,meteohub,2013-01-10 18:39:00,
2013-01-10 10:44:00,41.2,38.5,29.52,SW,225,7.0,8.0,90,0.01,,,0.12,meteohub,2013-01-10 18:44:00,
2013-01-10 10:49:00,41.2,38.5,29.51,SW,225,7.0,8.0,90,0.01,,,0.12,meteohub,2013-01-10 18:49:00,
2013-01-10 10:54:00,41.5,38.5,29.51,West,270,4.0,8.0,89,0.00,,,0.12,meteohub,2013-01-10 18:54:00,
2013-01-10 10:59:00,41.5,38.5,29.51,West,270,4.0,8.0,89,0.00,,,0.12,meteohub,2013-01-10 18:59:00,
2013-01-10 11:04:00,40.6,37.9,29.51,SW,225,4.0,8.0,90,0.00,,,0.12,meteohub,2013-01-10 19:04:00,
2013-01-10 11:09:00,40.6,37.9,29.51,SW,225,5.0,8.0,90,0.00,,,0.12,meteohub,2013-01-10 19:09:00,
2013-01-10 11:14:00,40.6,37.9,29.51,SW,225,5.0,7.0,90,0.00,,,0.12,meteohub,2013-01-10 19:14:00,
2013-01-10 11:19:00,40.8,38.1,29.51,SW,225,8.0,8.0,90,0.00,,,0.12,meteohub,2013-01-10 19:19:00,
2013-01-10 11:24:00,41.9,39.2,29.51,SW,225,6.0,8.0,90,0.00,,,0.12,meteohub,2013-01-10 19:24:00,
2013-01-10 11:29:00,42.1,39.0,29.50,SW,225,8.0,8.0,89,0.00,,,0.12,meteohub,2013-01-10 19:29:00,
2013-01-10 11:34:00,42.4,39.4,29.51,SW,225,4.0,8.0,89,0.00,,,0.12,meteohub,2013-01-10 19:34:00,
2013-01-10 11:39:00,42.4,38.5,29.50,SW,225,3.0,8.0,86,0.00,,,0.12,meteohub,2013-01-10 19:39:00,
2013-01-10 11:45:00,42.4,38.8,29.50,West,270,2.0,8.0,87,0.00,,,0.12,meteohub,2013-01-10 19:45:00,
2013-01-10 11:50:00,42.4,39.2,29.50,West,270,0.0,8.0,88,0.00,,,0.12,meteohub,2013-01-10 19:50:00,
2013-01-10 11:55:00,42.4,38.3,29.50,SW,225,9.0,9.0,85,0.00,,,0.12,meteohub,2013-01-10 19:55:00,
2013-01-10 12:00:00,42.1,38.5,29.50,SW,225,9.0,9.0,87,0.00,,,0.12,meteohub,2013-01-10 20:00:00,
2013-01-10 12:05:00,41.5,38.3,29.50,SW,225,8.0,13.0,88,0.00,,,0.12,meteohub,2013-01-10 20:05:00,
2013-01-10 12:11:00,41.5,38.5,29.50,SW,225,8.0,13.0,89,0.00,,,0.12,meteohub,2013-01-10 20:11:00,
2013-01-10 12:16:00,41.4,38.3,29.50,SW,225,11.0,13.0,89,0.00,,,0.12,meteohub,2013-01-10 20:16:00,
2013-01-10 12:21:00,41.2,38.1,29.50,SW,225,8.0,11.0,89,0.00,,,0.12,meteohub,2013-01-10 20:21:00,
2013-01-10 12:26:00,41.2,38.1,29.50,SW,225,8.0,11.0,89,0.00,,,0.12,meteohub,2013-01-10 20:26:00,
2013-01-10 12:31:00,41.2,38.1,29.49,SW,225,7.0,11.0,89,0.00,,,0.12,meteohub,2013-01-10 20:31:00,
2013-01-10 12:36:00,41.0,37.9,29.49,West,270,8.0,11.0,89,0.00,,,0.12,meteohub,2013-01-10 20:36:00,
2013-01-10 12:41:00,41.0,38.3,29.49,West,270,4.0,11.0,90,0.00,,,0.12,meteohub,2013-01-10 20:41:00,
2013-01-10 12:46:00,41.9,38.8,29.49,SW,225,7.0,10.0,89,0.00,,,0.12,meteohub,2013-01-10 20:46:00,
2013-01-10 12:51:00,41.9,38.8,29.49,SW,225,7.0,8.0,89,0.00,,,0.12,meteohub,2013-01-10 20:51:00,
2013-01-10 12:56:00,41.9,38.8,29.49,SW,225,7.0,8.0,89,0.00,,,0.12,meteohub,2013-01-10 20:56:00,
2013-01-10 13:01:00,44.4,38.7,29.49,West,270,10.0,10.0,80,0.00,,,0.12,meteohub,2013-01-10 21:01:00,
2013-01-10 13:06:00,43.9,38.5,29.50,SW,225,10.0,10.0,81,0.00,,,0.12,meteohub,2013-01-10 21:06:00,
2013-01-10 13:11:00,43.9,38.5,29.50,SW,225,10.0,10.0,81,0.00,,,0.12,meteohub,2013-01-10 21:11:00,
2013-01-10 13:25:00,44.2,39.7,29.50,West,270,4.0,-999.0,84,0.00,,,0.12,meteohub,2013-01-10 21:25:00,
2013-01-10 13:31:00,44.2,39.7,29.50,West,270,4.0,4.0,84,0.00,,,0.12,meteohub,2013-01-10 21:31:00,
2013-01-10 13:36:00,44.2,39.7,29.50,West,270,4.0,4.0,84,0.00,,,0.12,meteohub,2013-01-10 21:36:00,
2013-01-10 13:42:00,44.4,39.2,29.50,West,270,5.0,5.0,82,0.00,,,0.12,meteohub,2013-01-10 21:42:00,
2013-01-10 13:47:00,44.4,39.2,29.50,West,270,5.0,5.0,82,0.00,,,0.12,meteohub,2013-01-10 21:47:00,
2013-01-10 13:52:00,44.4,39.2,29.51,West,270,5.0,5.0,82,0.00,,,0.12,meteohub,2013-01-10 21:52:00,
2013-01-10 14:05:00,42.1,38.8,29.52,SW,225,0.0,-999.0,88,0.00,,,0.12,meteohub,2013-01-10 22:05:00,
2013-01-10 14:10:00,42.1,39.4,29.51,SE,135,0.0,0.0,90,0.01,,,0.13,meteohub,2013-01-10 22:10:00,
2013-01-10 14:16:00,42.4,39.7,29.51,East,90,0.0,0.0,90,0.01,,,0.13,meteohub,2013-01-10 22:16:00,
2013-01-10 14:21:00,42.6,39.9,29.51,NE,45,2.0,2.0,90,0.01,,,0.13,meteohub,2013-01-10 22:21:00,
2013-01-10 14:26:00,42.8,39.7,29.52,NE,45,2.0,2.0,89,0.01,,,0.13,meteohub,2013-01-10 22:26:00,
2013-01-10 14:31:00,42.6,39.6,29.52,NE,45,2.0,2.0,89,0.01,,,0.13,meteohub,2013-01-10 22:31:00,
2013-01-10 14:36:00,42.8,39.2,29.51,NE,45,2.0,2.0,87,0.01,,,0.13,meteohub,2013-01-10 22:36:00,
2013-01-10 14:41:00,43.3,40.1,29.52,East,90,2.0,3.0,88,0.01,,,0.13,meteohub,2013-01-10 22:41:00,
2013-01-10 14:47:00,43.2,39.6,29.52,ENE,68,2.0,3.0,87,0.01,,,0.13,meteohub,2013-01-10 22:47:00,
2013-01-10 14:52:00,42.4,39.4,29.52,NE,45,0.0,3.0,89,0.01,,,0.13,meteohub,2013-01-10 22:52:00,
2013-01-10 14:57:00,42.3,39.6,29.53,NE,45,1.0,3.0,90,0.01,,,0.14,meteohub,2013-01-10 22:57:00,
2013-01-10 15:02:00,41.4,38.7,29.52,South,180,4.0,4.0,90,0.01,,,0.14,meteohub,2013-01-10 23:02:00,
2013-01-10 15:07:00,39.9,37.2,29.52,SW,225,2.0,4.0,90,0.05,,,0.18,meteohub,2013-01-10 23:07:00,
2013-01-10 15:12:00,39.4,37.2,29.52,SW,225,1.0,4.0,92,0.05,,,0.18,meteohub,2013-01-10 23:12:00,
2013-01-10 15:17:00,39.2,37.4,29.53,NE,45,0.0,4.0,93,0.05,,,0.18,meteohub,2013-01-10 23:17:00,
2013-01-10 15:22:00,39.7,38.1,29.53,NE,45,2.0,4.0,94,0.05,,,0.18,meteohub,2013-01-10 23:22:00,
2013-01-10 15:27:00,40.1,38.5,29.53,NE,45,0.0,2.0,94,0.05,,,0.18,meteohub,2013-01-10 23:27:00,
2013-01-10 15:32:00,39.9,38.3,29.53,East,90,0.0,2.0,94,0.05,,,0.18,meteohub,2013-01-10 23:32:00,
2013-01-10 15:37:00,39.2,37.6,29.53,SE,135,0.0,2.0,94,0.05,,,0.18,meteohub,2013-01-10 23:37:00,
2013-01-10 15:42:00,38.8,37.2,29.53,SW,225,2.0,2.0,94,0.05,,,0.18,meteohub,2013-01-10 23:42:00,
2013-01-10 15:47:00,38.8,37.6,29.53,SW,225,0.0,2.0,95,0.05,,,0.18,meteohub,2013-01-10 23:47:00,
2013-01-10 15:52:00,38.8,37.8,29.53,SW,225,0.0,2.0,96,0.05,,,0.18,meteohub,2013-01-10 23:52:00,
2013-01-10 15:57:00,38.7,37.6,29.54,SW,225,0.0,2.0,96,0.04,,,0.18,meteohub,2013-01-10 23:57:00,
2013-01-10 16:03:00,38.8,38.1,29.54,SW,225,4.0,4.0,97,0.01,,,0.18,meteohub,2013-01-11 00:03:00,
2013-01-10 16:08:00,39.0,38.5,29.54,SW,225,6.0,6.0,98,0.00,,,0.00,meteohub,2013-01-11 00:08:00,
2013-01-10 16:13:00,38.8,38.3,29.54,SW,225,5.0,5.0,98,0.00,,,0.00,meteohub,2013-01-11 00:13:00,
2013-01-10 16:18:00,38.8,38.3,29.54,SW,225,3.0,7.0,98,0.00,,,0.00,meteohub,2013-01-11 00:18:00,
2013-01-10 16:23:00,38.7,38.5,29.54,SW,225,4.0,7.0,99,0.00,,,0.00,meteohub,2013-01-11 00:23:00,
2013-01-10 16:28:00,38.7,38.5,29.54,SW,225,5.0,7.0,99,0.00,,,0.00,meteohub,2013-01-11 00:28:00,
2013-01-10 16:33:00,38.8,38.7,29.54,South,180,6.0,6.0,99,0.00,,,0.00,meteohub,2013-01-11 00:33:00,
2013-01-10 16:38:00,38.8,38.3,29.54,West,270,7.0,7.0,98,0.00,,,0.00,meteohub,2013-01-11 00:38:00,
2013-01-10 16:43:00,38.8,38.3,29.54,SW,225,6.0,8.0,98,0.00,,,0.00,meteohub,2013-01-11 00:43:00,
2013-01-10 16:49:00,38.8,38.3,29.54,SW,225,4.0,8.0,98,0.00,,,0.00,meteohub,2013-01-11 00:49:00,
2013-01-10 16:54:00,38.7,38.1,29.54,SW,225,4.0,8.0,98,0.00,,,0.00,meteohub,2013-01-11 00:54:00,
2013-01-10 16:59:00,38.7,38.1,29.55,West,270,2.0,6.0,98,0.00,,,0.00,meteohub,2013-01-11 00:59:00,
2013-01-10 17:04:00,38.7,38.5,29.54,SW,225,3.0,6.0,99,0.00,,,0.00,meteohub,2013-01-11 01:04:00,
2013-01-10 17:09:00,38.5,38.3,29.55,SW,225,4.0,5.0,99,0.00,,,0.00,meteohub,2013-01-11 01:09:00,
2013-01-10 17:14:00,38.3,37.8,29.54,SW,225,4.0,5.0,98,0.01,,,0.01,meteohub,2013-01-11 01:14:00,
2013-01-10 17:19:00,37.9,37.4,29.54,SW,225,4.0,5.0,98,0.01,,,0.01,meteohub,2013-01-11 01:19:00,
2013-01-10 17:24:00,37.6,37.4,29.54,SW,225,5.0,5.0,99,0.01,,,0.01,meteohub,2013-01-11 01:24:00,
2013-01-10 17:30:00,37.4,37.2,29.54,SW,225,3.0,5.0,99,0.01,,,0.01,meteohub,2013-01-11 01:30:00,
2013-01-10 17:35:00,37.0,36.9,29.54,West,270,4.0,6.0,99,0.01,,,0.01,meteohub,2013-01-11 01:35:00,
2013-01-10 17:40:00,37.0,36.9,29.55,SW,225,6.0,6.0,99,0.01,,,0.01,meteohub,2013-01-11 01:40:00,
2013-01-10 17:45:00,37.2,37.0,29.55,SW,225,6.0,8.0,99,0.01,,,0.01,meteohub,2013-01-11 01:45:00,
2013-01-10 17:50:00,37.4,37.2,29.55,SW,225,6.0,8.0,99,0.01,,,0.01,meteohub,2013-01-11 01:50:00,
2013-01-10 17:55:00,37.6,37.4,29.55,SW,225,4.0,8.0,99,0.01,,,0.01,meteohub,2013-01-11 01:55:00,
2013-01-10 18:01:00,37.6,37.0,29.55,SW,225,4.0,8.0,98,0.01,,,0.01,meteohub,2013-01-11 02:01:00,
2013-01-10 18:06:00,37.6,37.0,29.55,SW,225,5.0,8.0,98,0.01,,,0.01,meteohub,2013-01-11 02:06:00,
2013-01-10 18:11:00,37.4,36.9,29.55,SW,225,4.0,7.0,98,0.00,,,0.01,meteohub,2013-01-11 02:11:00,
2013-01-10 18:16:00,37.4,36.9,29.55,SW,225,6.0,7.0,98,0.00,,,0.01,meteohub,2013-01-11 02:16:00,
2013-01-10 18:22:00,37.4,36.7,29.55,SSW,203,6.0,6.0,97,0.00,,,0.01,meteohub,2013-01-11 02:22:00,
2013-01-10 18:27:00,37.4,36.7,29.55,SW,225,4.0,8.0,97,0.00,,,0.01,meteohub,2013-01-11 02:27:00,
2013-01-10 18:32:00,37.4,36.7,29.55,SW,225,4.0,8.0,97,0.00,,,0.01,meteohub,2013-01-11 02:32:00,
2013-01-10 18:37:00,37.0,36.3,29.55,SW,225,4.0,8.0,97,0.00,,,0.01,meteohub,2013-01-11 02:37:00,
2013-01-10 18:42:00,37.0,36.3,29.55,SW,225,4.0,5.0,97,0.00,,,0.01,meteohub,2013-01-11 02:42:00,
2013-01-10 18:47:00,36.9,36.3,29.55,SW,225,5.0,5.0,98,0.00,,,0.01,meteohub,2013-01-11 02:47:00,
2013-01-10 18:53:00,36.7,36.1,29.55,SW,225,5.0,6.0,98,0.00,,,0.01,meteohub,2013-01-11 02:53:00,
2013-01-10 18:58:00,36.5,36.0,29.55,SW,225,4.0,6.0,98,0.00,,,0.01,meteohub,2013-01-11 02:58:00,
2013-01-10 19:03:00,36.3,35.8,29.55,West,270,3.0,6.0,98,0.00,,,0.01,meteohub,2013-01-11 03:03:00,
2013-01-10 19:08:00,36.3,35.8,29.55,West,270,3.0,5.0,98,0.00,,,0.01,meteohub,2013-01-11 03:08:00,
2013-01-10 19:13:00,36.0,35.4,29.55,SW,225,4.0,4.0,98,0.00,,,0.01,meteohub,2013-01-11 03:13:00,
2013-01-10 19:18:00,35.4,34.9,29.56,SW,225,3.0,4.0,98,0.00,,,0.01,meteohub,2013-01-11 03:18:00,
2013-01-10 19:23:00,35.4,35.2,29.56,SW,225,4.0,4.0,99,0.00,,,0.01,meteohub,2013-01-11 03:23:00,
2013-01-10 19:28:00,35.4,35.2,29.56,SW,225,4.0,4.0,99,0.00,,,0.01,meteohub,2013-01-11 03:28:00,
2013-01-10 19:33:00,35.6,35.4,29.56,SW,225,4.0,4.0,99,0.00,,,0.01,meteohub,2013-01-11 03:33:00,
2013-01-10 19:39:00,35.6,35.1,29.56,SW,225,7.0,7.0,98,0.00,,,0.01,meteohub,2013-01-11 03:39:00,
2013-01-10 19:44:00,35.8,35.1,29.56,SW,225,6.0,7.0,97,0.00,,,0.01,meteohub,2013-01-11 03:44:00,
2013-01-10 19:49:00,35.8,35.1,29.56,SW,225,7.0,7.0,97,0.00,,,0.01,meteohub,2013-01-11 03:49:00,
2013-01-10 19:54:00,35.6,34.5,29.56,SW,225,4.0,7.0,96,0.00,,,0.01,meteohub,2013-01-11 03:54:00,
2013-01-10 19:59:00,35.4,34.7,29.56,West,270,4.0,7.0,97,0.00,,,0.01,meteohub,2013-01-11 03:59:00,
2013-01-10 20:04:00,35.6,34.9,29.56,SW,225,6.0,7.0,97,0.00,,,0.01,meteohub,2013-01-11 04:04:00,
2013-01-10 20:09:00,35.6,34.9,29.56,SW,225,8.0,8.0,97,0.00,,,0.01,meteohub,2013-01-11 04:09:00,
2013-01-10 20:14:00,35.6,34.9,29.57,SW,225,4.0,8.0,97,0.00,,,0.01,meteohub,2013-01-11 04:14:00,
2013-01-10 20:19:00,35.6,34.9,29.57,South,180,4.0,8.0,97,0.00,,,0.01,meteohub,2013-01-11 04:19:00,
2013-01-10 20:24:00,36.0,35.2,29.57,West,270,8.0,8.0,97,0.00,,,0.01,meteohub,2013-01-11 04:24:00,
2013-01-10 20:29:00,36.0,34.9,29.56,SW,225,4.0,10.0,96,0.01,,,0.02,meteohub,2013-01-11 04:29:00,
2013-01-10 20:34:00,35.6,34.9,29.56,West,270,2.0,10.0,97,0.01,,,0.02,meteohub,2013-01-11 04:34:00,
2013-01-10 20:39:00,35.2,34.5,29.57,SW,225,2.0,10.0,97,0.01,,,0.02,meteohub,2013-01-11 04:39:00,
2013-01-10 20:44:00,34.9,34.2,29.57,South,180,3.0,6.0,97,0.01,,,0.02,meteohub,2013-01-11 04:44:00,
2013-01-10 20:49:00,34.5,34.0,29.57,South,180,0.0,3.0,98,0.01,,,0.02,meteohub,2013-01-11 04:49:00,
2013-01-10 20:55:00,34.3,33.8,29.57,South,180,0.0,3.0,98,0.01,,,0.02,meteohub,2013-01-11 04:55:00,
2013-01-10 21:02:00,34.2,34.0,29.56,SW,225,0.0,3.0,99,0.01,,,0.02,meteohub,2013-01-11 05:02:00,
2013-01-10 21:03:00,34.2,34.0,29.56,SW,225,0.0,3.0,99,0.01,,,0.02,meteohub,2013-01-11 05:03:00,
2013-01-10 21:04:00,34.0,33.8,29.56,SW,225,0.0,3.0,99,0.01,,,0.02,meteohub,2013-01-11 05:04:00,
2013-01-10 21:07:00,33.8,33.6,29.56,SW,225,0.0,0.0,99,0.01,,,0.02,meteohub,2013-01-11 05:07:00,
2013-01-10 21:12:00,33.6,33.4,29.56,West,270,4.0,0.0,99,0.01,,,0.02,meteohub,2013-01-11 05:12:00,
2013-01-10 21:17:00,33.8,33.6,29.56,SW,225,2.0,4.0,99,0.01,,,0.02,meteohub,2013-01-11 05:17:00,
2013-01-10 21:22:00,34.0,33.8,29.56,SW,225,4.0,4.0,99,0.01,,,0.02,meteohub,2013-01-11 05:22:00,
2013-01-10 21:27:00,34.3,34.2,29.56,SW,225,4.0,4.0,99,0.00,,,0.02,meteohub,2013-01-11 05:27:00,
2013-01-10 21:32:00,34.2,34.0,29.56,West,270,4.0,6.0,99,0.00,,,0.02,meteohub,2013-01-11 05:32:00,
2013-01-10 21:37:00,34.0,33.8,29.56,SW,225,5.0,6.0,99,0.00,,,0.02,meteohub,2013-01-11 05:37:00,
2013-01-10 21:42:00,33.8,33.6,29.56,SW,225,6.0,6.0,99,0.00,,,0.02,meteohub,2013-01-11 05:42:00,
2013-01-10 21:47:00,33.4,33.3,29.56,SW,225,5.0,6.0,99,0.00,,,0.02,meteohub,2013-01-11 05:47:00,
2013-01-10 21:53:00,33.4,33.3,29.56,SW,225,6.0,6.0,99,0.00,,,0.02,meteohub,2013-01-11 05:53:00,
2013-01-10 21:58:00,33.6,33.4,29.56,SW,225,4.0,6.0,99,0.00,,,0.02,meteohub,2013-01-11 05:58:00,
2013-01-10 22:03:00,33.8,33.6,29.56,SW,225,4.0,7.0,99,0.01,,,0.04,meteohub,2013-01-11 06:03:00,
2013-01-10 22:08:00,34.0,33.8,29.56,SW,225,4.0,7.0,99,0.01,,,0.04,meteohub,2013-01-11 06:08:00,
2013-01-10 22:13:00,34.0,33.8,29.56,SW,225,4.0,6.0,99,0.01,,,0.04,meteohub,2013-01-11 06:13:00,
2013-01-10 22:18:00,33.8,33.6,29.56,SW,225,5.0,6.0,99,0.01,,,0.04,meteohub,2013-01-11 06:18:00,
2013-01-10 22:23:00,33.6,33.4,29.56,SW,225,8.0,8.0,99,0.01,,,0.04,meteohub,2013-01-11 06:23:00,
2013-01-10 22:28:00,33.8,33.6,29.56,SW,225,4.0,8.0,99,0.01,,,0.04,meteohub,2013-01-11 06:28:00,
2013-01-10 22:33:00,33.6,33.4,29.56,SW,225,6.0,8.0,99,0.01,,,0.04,meteohub,2013-01-11 06:33:00,
2013-01-10 22:38:00,33.8,33.6,29.56,SW,225,5.0,8.0,99,0.01,,,0.04,meteohub,2013-01-11 06:38:00,
2013-01-10 22:43:00,34.0,33.8,29.56,SW,225,6.0,7.0,99,0.01,,,0.04,meteohub,2013-01-11 06:43:00,
2013-01-10 22:48:00,34.2,33.6,29.56,West,270,8.0,8.0,98,0.01,,,0.04,meteohub,2013-01-11 06:48:00,
2013-01-10 22:53:00,34.5,33.8,29.57,West,270,7.0,7.0,97,0.01,,,0.04,meteohub,2013-01-11 06:53:00,
2013-01-10 22:58:00,34.7,33.6,29.56,West,270,7.0,9.0,96,0.01,,,0.04,meteohub,2013-01-11 06:58:00,
2013-01-10 23:04:00,34.7,33.6,29.56,West,270,6.0,9.0,96,0.00,,,0.04,meteohub,2013-01-11 07:04:00,
2013-01-10 23:09:00,34.7,33.6,29.57,SW,225,6.0,9.0,96,0.00,,,0.04,meteohub,2013-01-11 07:09:00,
2013-01-10 23:14:00,34.7,33.6,29.57,West,270,5.0,8.0,96,0.00,,,0.04,meteohub,2013-01-11 07:14:00,
2013-01-10 23:19:00,34.3,33.6,29.56,SW,225,4.0,8.0,97,0.00,,,0.04,meteohub,2013-01-11 07:19:00,
2013-01-10 23:24:00,34.2,33.4,29.56,SW,225,4.0,8.0,97,0.00,,,0.04,meteohub,2013-01-11 07:24:00,
2013-01-10 23:29:00,34.0,33.3,29.56,SW,225,4.0,6.0,97,0.00,,,0.04,meteohub,2013-01-11 07:29:00,
2013-01-10 23:34:00,33.4,32.9,29.57,SW,225,5.0,6.0,98,0.00,,,0.04,meteohub,2013-01-11 07:34:00,
2013-01-10 23:39:00,33.4,32.9,29.57,SW,225,4.0,6.0,98,0.00,,,0.04,meteohub,2013-01-11 07:39:00,
2013-01-10 23:44:00,33.4,33.3,29.57,SW,225,5.0,6.0,99,0.00,,,0.04,meteohub,2013-01-11 07:44:00,
2013-01-10 23:49:00,33.4,33.3,29.56,West,270,8.0,8.0,99,0.00,,,0.04,meteohub,2013-01-11 07:49:00,
2013-01-10 23:54:00,33.4,33.3,29.57,SW,225,7.0,7.0,99,0.00,,,0.04,meteohub,2013-01-11 07:54:00,